createdAt,value
2022-12-06T00:01:33.206Z,63.80
2022-12-06T00:04:04.061Z,69.57
2022-12-06T00:06:38.062Z,57.53
2022-12-06T00:09:07.197Z,61.27
2022-12-06T00:11:37.851Z,48.43
2022-12-06T00:14:08.233Z,60.73
2022-12-06T00:16:37.852Z,57.40
2022-12-06T00:19:07.179Z,63.33
2022-12-06T00:21:38.320Z,58.73
2022-12-06T00:24:09.372Z,52.80
2022-12-06T00:26:39.337Z,48.53
2022-12-06T00:29:08.944Z,53.23
2022-12-06T00:31:37.270Z,53.97
2022-12-06T00:34:06.101Z,59.10
2022-12-06T00:36:38.000Z,59.20
2022-12-06T00:39:08.471Z,52.73
2022-12-06T00:41:36.954Z,51.47
2022-12-06T00:44:06.174Z,57.27
2022-12-06T00:46:35.208Z,58.63
2022-12-06T00:49:06.516Z,58.20
2022-12-06T00:51:37.393Z,59.90
2022-12-06T00:54:06.521Z,55.10
2022-12-06T00:56:37.071Z,66.63
2022-12-06T00:59:06.687Z,53.53
2022-12-06T01:01:36.387Z,58.47
2022-12-06T01:04:07.743Z,51.23
2022-12-06T01:06:38.539Z,55.87
2022-12-06T01:09:10.550Z,51.87
2022-12-06T01:11:38.897Z,61.97
2022-12-06T01:14:07.968Z,45.67
2022-12-06T01:16:36.483Z,61.10
2022-12-06T01:19:07.041Z,53.83
2022-12-06T01:21:37.148Z,47.27
2022-12-06T01:24:06.360Z,53.33
2022-12-06T01:26:36.178Z,53.23
2022-12-06T01:29:05.509Z,52.33
2022-12-06T01:31:38.822Z,46.83
2022-12-06T01:34:09.133Z,54.10
2022-12-06T01:36:38.698Z,45.50
2022-12-06T01:39:10.732Z,58.13
2022-12-06T01:41:40.163Z,51.87
2022-12-06T01:44:09.200Z,54.77
2022-12-06T01:46:42.767Z,54.43
2022-12-06T01:49:18.647Z,48.43
2022-12-06T01:51:52.025Z,58.00
2022-12-06T01:54:22.532Z,58.20
2022-12-06T01:56:53.160Z,44.07
2022-12-06T01:59:24.019Z,58.70
2022-12-06T02:01:52.873Z,68.07
2022-12-06T02:04:22.739Z,49.93
2022-12-06T02:06:55.189Z,62.93
2022-12-06T02:09:24.443Z,53.47
2022-12-06T02:11:52.860Z,54.87
2022-12-06T02:14:25.046Z,56.33
2022-12-06T02:17:05.634Z,51.97
2022-12-06T02:20:08.916Z,53.70
2022-12-06T02:23:30.946Z,65.70
2022-12-06T02:26:18.411Z,55.77
2022-12-06T02:29:35.602Z,67.07
2022-12-06T02:32:12.377Z,55.83
2022-12-06T02:34:47.566Z,54.07
2022-12-06T02:37:21.532Z,54.53
2022-12-06T02:39:53.836Z,61.63
2022-12-06T02:42:26.245Z,56.47
2022-12-06T02:44:56.623Z,63.33
2022-12-06T02:47:32.841Z,46.53
2022-12-06T02:50:03.122Z,60.10
2022-12-06T02:52:33.410Z,59.87
2022-12-06T02:55:02.933Z,52.27
2022-12-06T02:57:40.921Z,47.43
2022-12-06T03:00:35.770Z,56.63
2022-12-06T03:03:24.667Z,64.97
2022-12-06T03:06:16.743Z,57.23
2022-12-06T03:08:58.581Z,54.00
2022-12-06T03:11:36.181Z,65.47
2022-12-06T03:14:11.013Z,61.47
2022-12-06T03:16:48.658Z,63.17
2022-12-06T03:19:22.615Z,57.30
2022-12-06T03:21:59.069Z,59.47
2022-12-06T03:24:31.052Z,60.40
2022-12-06T03:27:02.909Z,65.50
2022-12-06T03:29:33.709Z,55.87
2022-12-06T03:32:04.175Z,67.13
2022-12-06T03:34:37.475Z,60.17
2022-12-06T03:37:10.510Z,66.47
2022-12-06T03:39:45.314Z,62.17
2022-12-06T03:42:13.884Z,50.27
2022-12-06T03:44:42.663Z,44.97
2022-12-06T03:47:16.329Z,48.13
2022-12-06T03:49:49.369Z,51.33
2022-12-06T03:52:17.642Z,61.20
2022-12-06T03:54:46.190Z,55.50
2022-12-06T03:57:15.056Z,51.53
2022-12-06T03:59:43.631Z,62.90
2022-12-06T04:02:11.990Z,57.33
2022-12-06T04:04:41.523Z,47.80
2022-12-06T04:07:13.257Z,58.07
2022-12-06T04:09:56.345Z,57.33
2022-12-06T04:12:42.992Z,55.50
2022-12-06T04:15:12.179Z,69.93
2022-12-06T04:17:58.315Z,62.17
2022-12-06T04:20:28.386Z,55.43
2022-12-06T04:23:06.304Z,53.57
2022-12-06T04:25:36.229Z,48.37
2022-12-06T04:28:23.440Z,55.20
2022-12-06T04:31:09.757Z,47.13
2022-12-06T04:33:55.371Z,63.63
2022-12-06T04:36:41.342Z,50.43
2022-12-06T04:39:10.974Z,57.63
2022-12-06T04:41:58.037Z,59.70
2022-12-06T04:44:26.459Z,47.27
2022-12-06T04:46:55.057Z,55.70
2022-12-06T04:49:26.458Z,55.77
2022-12-06T04:51:55.205Z,57.50
2022-12-06T04:54:25.339Z,52.93
2022-12-06T04:56:54.490Z,54.60
2022-12-06T04:59:22.716Z,63.30
2022-12-06T05:01:51.456Z,51.67
2022-12-06T05:04:19.882Z,68.13
2022-12-06T05:06:48.737Z,64.17
2022-12-06T05:09:17.329Z,61.90
2022-12-06T05:11:47.458Z,54.10
2022-12-06T05:14:15.811Z,56.17
2022-12-06T05:16:44.530Z,59.53
2022-12-06T05:19:13.776Z,50.10
2022-12-06T05:21:42.683Z,54.70
2022-12-06T05:24:11.265Z,64.80
2022-12-06T05:26:39.856Z,51.63
2022-12-06T05:29:09.880Z,61.47
2022-12-06T05:31:38.604Z,50.23
2022-12-06T05:34:07.206Z,51.00
2022-12-06T05:36:36.045Z,59.67
2022-12-06T05:39:04.688Z,64.60
2022-12-06T05:41:33.206Z,70.27
2022-12-06T05:44:01.435Z,65.47
2022-12-06T05:46:31.289Z,73.23
2022-12-06T05:48:59.524Z,71.13
2022-12-06T05:51:28.074Z,58.03
2022-12-06T05:53:56.392Z,68.07
2022-12-06T05:56:25.170Z,55.57
2022-12-06T05:58:53.452Z,69.67
2022-12-06T06:01:21.970Z,58.57
2022-12-06T06:03:51.592Z,52.80
2022-12-06T06:06:20.161Z,63.50
2022-12-06T06:08:48.496Z,68.33
2022-12-06T06:11:17.220Z,63.03
2022-12-06T06:13:45.567Z,74.40
2022-12-06T06:16:14.146Z,68.07
2022-12-06T06:18:42.374Z,67.57
2022-12-06T06:21:12.327Z,62.73
2022-12-06T06:23:41.164Z,60.50
2022-12-06T06:26:10.236Z,61.13
2022-12-06T06:28:39.350Z,58.00
2022-12-06T06:31:08.478Z,63.07
2022-12-06T06:33:37.353Z,59.60
2022-12-06T06:36:06.604Z,72.07
2022-12-06T06:38:36.145Z,65.47
2022-12-06T06:41:05.269Z,67.60
2022-12-06T06:43:33.537Z,67.70
2022-12-06T06:46:03.523Z,51.73
2022-12-06T06:48:33.782Z,56.93
2022-12-06T06:51:04.315Z,58.93
2022-12-06T06:53:32.570Z,57.73
2022-12-06T06:56:02.701Z,51.70
2022-12-06T06:58:30.976Z,66.83
2022-12-06T07:01:01.634Z,72.80
2022-12-06T07:03:30.504Z,64.17
2022-12-06T07:06:01.136Z,69.63
2022-12-06T07:08:31.013Z,59.07
2022-12-06T07:10:59.941Z,52.73
2022-12-06T07:13:31.526Z,64.20
2022-12-06T07:16:00.218Z,53.47
2022-12-06T07:18:28.663Z,59.80
2022-12-06T07:21:02.017Z,63.10
2022-12-06T07:23:30.631Z,60.70
2022-12-06T07:26:03.405Z,54.07
2022-12-06T07:28:33.568Z,61.27
2022-12-06T07:31:09.895Z,62.93
2022-12-06T07:33:38.950Z,60.63
2022-12-06T07:36:13.609Z,74.63
2022-12-06T07:38:43.535Z,53.57
2022-12-06T07:41:40.165Z,66.80
2022-12-06T07:44:29.963Z,70.07
2022-12-06T07:46:58.901Z,61.37
2022-12-06T07:49:27.540Z,56.77
2022-12-06T07:51:57.057Z,60.37
2022-12-06T07:54:26.189Z,65.00
2022-12-06T07:56:56.382Z,61.90
2022-12-06T07:59:27.439Z,52.93
2022-12-06T08:01:56.187Z,70.40
2022-12-06T08:04:24.676Z,65.83
2022-12-06T08:06:54.218Z,72.50
2022-12-06T08:09:22.608Z,71.00
2022-12-06T08:11:51.688Z,72.80
2022-12-06T08:14:20.048Z,59.00
2022-12-06T08:16:49.991Z,68.73
2022-12-06T08:19:18.311Z,64.53
2022-12-06T08:21:47.057Z,70.20
2022-12-06T08:24:15.621Z,69.57
2022-12-06T08:26:44.181Z,72.67
2022-12-06T08:29:12.510Z,57.53
2022-12-06T08:31:42.023Z,62.13
2022-12-06T08:34:11.710Z,57.43
2022-12-06T08:36:41.280Z,63.77
2022-12-06T08:39:11.341Z,59.77
2022-12-06T08:41:58.031Z,71.13
2022-12-06T08:44:28.013Z,64.07
2022-12-06T08:46:57.768Z,63.57
2022-12-06T08:49:28.877Z,61.40
2022-12-06T08:51:57.677Z,63.63
2022-12-06T08:54:26.966Z,59.23
2022-12-06T08:56:55.689Z,71.50
2022-12-06T08:59:24.277Z,60.53
2022-12-06T09:01:52.994Z,62.20
2022-12-06T09:04:21.317Z,66.77
2022-12-06T09:06:51.506Z,64.90
2022-12-06T09:09:20.404Z,64.77
2022-12-06T09:11:51.253Z,65.03
2022-12-06T09:14:22.296Z,65.33
2022-12-06T09:16:52.482Z,56.77
2022-12-06T09:19:21.303Z,69.27
2022-12-06T09:21:51.351Z,71.60
2022-12-06T09:24:20.343Z,65.97
2022-12-06T09:26:49.506Z,73.30
2022-12-06T09:29:18.661Z,69.40
2022-12-06T09:31:47.726Z,68.60
2022-12-06T09:34:16.971Z,71.97
2022-12-06T09:36:48.905Z,76.10
2022-12-06T09:39:22.480Z,79.03
2022-12-06T09:42:19.502Z,71.77
2022-12-06T09:45:11.478Z,70.53
2022-12-06T09:47:53.531Z,90.90
2022-12-06T09:50:28.711Z,65.33
2022-12-06T09:53:12.365Z,58.30
2022-12-06T09:55:50.988Z,65.83
2022-12-06T09:58:31.007Z,61.53
2022-12-06T10:01:11.512Z,57.07
2022-12-06T10:03:53.049Z,78.20
2022-12-06T10:06:24.112Z,66.63
2022-12-06T10:09:06.863Z,66.20
2022-12-06T10:11:54.737Z,63.03
2022-12-06T10:14:34.385Z,66.00
2022-12-06T10:17:12.874Z,67.87
2022-12-06T10:19:53.779Z,66.93
2022-12-06T10:22:37.179Z,72.13
2022-12-06T10:25:12.320Z,62.03
2022-12-06T10:27:50.726Z,64.90
2022-12-06T10:30:21.452Z,63.87
2022-12-06T10:32:54.987Z,61.73
2022-12-06T10:35:40.580Z,63.30
2022-12-06T10:38:23.157Z,61.70
2022-12-06T10:40:59.140Z,59.40
2022-12-06T10:43:37.498Z,57.00
2022-12-06T10:46:29.823Z,66.93
2022-12-06T10:49:05.648Z,58.73
2022-12-06T10:51:40.844Z,46.67
2022-12-06T10:54:23.289Z,65.30
2022-12-06T10:56:54.755Z,69.47
2022-12-06T10:59:31.835Z,59.57
2022-12-06T11:02:13.812Z,58.17
2022-12-06T11:04:44.644Z,69.77
2022-12-06T11:07:17.785Z,57.87
2022-12-06T11:09:50.254Z,60.20
2022-12-06T11:12:30.959Z,67.33
2022-12-06T11:15:13.428Z,66.60
2022-12-06T11:17:48.023Z,55.67
2022-12-06T11:20:23.853Z,62.17
2022-12-06T11:23:07.236Z,61.77
2022-12-06T11:25:46.026Z,58.50
2022-12-06T11:28:32.688Z,67.33
2022-12-06T11:31:02.832Z,49.87
2022-12-06T11:33:33.558Z,59.63
2022-12-06T11:36:03.945Z,56.40
2022-12-06T11:38:34.666Z,54.83
2022-12-06T11:41:06.270Z,48.37
2022-12-06T11:43:36.041Z,57.97
2022-12-06T11:46:07.905Z,53.33
2022-12-06T11:48:37.405Z,49.57
2022-12-06T11:51:06.654Z,53.67
2022-12-06T11:53:41.847Z,55.70
2022-12-06T11:56:21.147Z,51.63
2022-12-06T11:59:03.667Z,47.03
2022-12-06T12:01:42.876Z,52.30
2022-12-06T12:04:40.016Z,49.03
2022-12-06T12:07:17.059Z,63.10
2022-12-06T12:09:52.860Z,52.13
2022-12-06T12:12:23.596Z,53.70
2022-12-06T12:14:58.868Z,53.90
2022-12-06T12:17:33.037Z,53.77
2022-12-06T12:20:05.418Z,55.13
2022-12-06T12:22:38.878Z,52.50
2022-12-06T12:25:25.606Z,50.57
2022-12-06T12:27:55.198Z,48.83
2022-12-06T12:30:31.471Z,52.30
2022-12-06T12:33:20.415Z,46.60
2022-12-06T12:35:51.981Z,51.10
2022-12-06T12:38:26.540Z,49.40
2022-12-06T12:40:57.789Z,60.60
2022-12-06T12:43:28.586Z,41.87
2022-12-06T12:46:14.999Z,58.33
2022-12-06T12:48:47.012Z,59.30
2022-12-06T12:51:30.059Z,41.93
2022-12-06T12:54:01.593Z,45.10
2022-12-06T12:56:33.455Z,38.83
2022-12-06T12:59:03.861Z,56.57
2022-12-06T13:01:39.870Z,57.87
2022-12-06T13:04:28.305Z,67.33
2022-12-06T13:07:00.868Z,69.47
2022-12-06T13:09:33.435Z,64.00
2022-12-06T13:12:06.851Z,51.77
2022-12-06T13:14:36.991Z,54.07
2022-12-06T13:17:09.483Z,51.67
2022-12-06T13:19:43.108Z,42.73
2022-12-06T13:22:16.861Z,45.33
2022-12-06T13:24:48.229Z,56.33
2022-12-06T13:27:20.771Z,44.43
2022-12-06T13:30:01.103Z,41.03
2022-12-06T13:32:37.339Z,50.43
2022-12-06T13:35:17.527Z,47.80
2022-12-06T13:37:52.275Z,60.80
2022-12-06T13:40:40.347Z,40.37
2022-12-06T13:43:49.505Z,45.43
2022-12-06T13:46:29.567Z,46.50
2022-12-06T13:48:59.833Z,49.53
2022-12-06T13:51:47.721Z,38.77
2022-12-06T13:54:31.981Z,33.93
2022-12-06T13:57:04.257Z,47.47
2022-12-06T13:59:40.824Z,46.27
2022-12-06T14:02:49.105Z,42.73
2022-12-06T14:08:26.458Z,39.03
2022-12-06T14:11:13.396Z,44.50
2022-12-06T14:13:43.400Z,40.73
2022-12-06T14:16:19.197Z,39.83
2022-12-06T14:18:47.724Z,35.10
2022-12-06T14:21:23.995Z,48.63
2022-12-06T14:23:53.982Z,50.13
2022-12-06T14:26:25.780Z,39.90
2022-12-06T14:28:55.825Z,37.03
2022-12-06T14:31:30.240Z,50.30
2022-12-06T14:33:58.903Z,44.90
2022-12-06T14:36:30.485Z,38.57
2022-12-06T14:39:02.719Z,48.30
2022-12-06T14:41:51.873Z,41.20
2022-12-06T14:44:21.860Z,45.30
2022-12-06T14:46:51.133Z,47.80
2022-12-06T14:49:39.621Z,45.97
2022-12-06T14:52:20.402Z,37.57
2022-12-06T14:54:51.845Z,46.00
2022-12-06T14:57:25.252Z,48.83
2022-12-06T15:03:26.466Z,49.37
2022-12-06T15:06:11.743Z,41.40
2022-12-06T15:08:41.725Z,37.87
2022-12-06T15:11:45.420Z,45.63
2022-12-06T15:14:16.247Z,49.30
2022-12-06T15:16:47.695Z,45.00
2022-12-06T15:19:17.782Z,46.77
2022-12-06T15:21:46.026Z,45.90
2022-12-06T15:24:19.542Z,41.23
2022-12-06T15:26:49.990Z,37.30
2022-12-06T15:29:19.017Z,37.70
2022-12-06T15:31:50.522Z,35.70
2022-12-06T15:34:26.803Z,40.67
2022-12-06T15:37:29.870Z,40.10
2022-12-06T15:39:45.613Z,36.43
2022-12-06T15:42:19.362Z,39.30
2022-12-06T15:44:49.939Z,38.97
2022-12-06T15:47:19.721Z,40.87
2022-12-06T15:49:50.934Z,39.43
2022-12-06T15:52:23.136Z,41.13
2022-12-06T15:54:52.362Z,42.87
2022-12-06T15:57:22.094Z,39.40
2022-12-06T15:59:50.691Z,40.90
2022-12-06T16:02:19.714Z,41.63
2022-12-06T16:04:50.977Z,44.20
2022-12-06T16:07:19.680Z,31.60
2022-12-06T16:09:49.043Z,49.47
2022-12-06T16:12:17.681Z,61.63
2022-12-06T16:14:47.908Z,54.23
2022-12-06T16:17:16.276Z,53.40
2022-12-06T16:20:02.576Z,51.43
2022-12-06T16:22:48.578Z,47.28
2022-12-06T16:25:17.149Z,46.67
2022-12-06T16:27:45.576Z,48.77
2022-12-06T16:30:16.633Z,38.27
2022-12-06T16:32:44.956Z,46.47
2022-12-06T16:35:13.578Z,34.73
2022-12-06T16:37:42.179Z,49.73
2022-12-06T16:40:19.823Z,37.87
2022-12-06T16:42:48.256Z,37.03
2022-12-06T16:45:18.548Z,45.33
2022-12-06T16:47:47.560Z,28.40
2022-12-06T16:50:24.565Z,45.93
2022-12-06T16:52:53.344Z,46.87
2022-12-06T16:55:22.121Z,37.93
2022-12-06T16:57:50.685Z,38.53
2022-12-06T17:00:21.518Z,48.83
2022-12-06T17:02:50.752Z,37.60
2022-12-06T17:05:22.300Z,39.63
2022-12-06T17:07:50.920Z,41.63
2022-12-06T17:10:20.997Z,40.07
2022-12-06T17:12:49.848Z,41.40
2022-12-06T17:15:22.492Z,48.37
2022-12-06T17:17:51.134Z,41.27
2022-12-06T17:20:20.583Z,45.73
2022-12-06T17:22:55.056Z,34.10
2022-12-06T17:25:24.009Z,41.10
2022-12-06T17:27:52.428Z,36.67
2022-12-06T17:30:23.425Z,41.00
2022-12-06T17:32:52.022Z,41.37
2022-12-06T17:35:20.622Z,42.93
2022-12-06T17:37:48.923Z,39.63
2022-12-06T17:40:17.660Z,42.23
2022-12-06T17:42:59.918Z,45.20
2022-12-06T17:45:30.167Z,38.27
2022-12-06T17:47:58.531Z,48.40
2022-12-06T17:50:27.482Z,39.10
2022-12-06T17:52:56.069Z,37.77
2022-12-06T17:55:25.071Z,40.73
2022-12-06T17:57:53.683Z,35.97
2022-12-06T18:00:22.957Z,40.40
2022-12-06T18:02:52.770Z,41.50
2022-12-06T18:05:21.731Z,37.23
2022-12-06T18:07:51.736Z,33.57
2022-12-06T18:10:20.588Z,33.17
2022-12-06T18:12:48.863Z,41.60
2022-12-06T18:15:35.044Z,53.13
2022-12-06T18:18:05.223Z,50.20
2022-12-06T18:20:34.218Z,76.70
2022-12-06T18:23:02.495Z,83.60
2022-12-06T18:25:31.279Z,86.70
2022-12-06T18:27:59.663Z,86.50
2022-12-06T18:30:28.344Z,91.30
2022-12-06T18:32:56.632Z,77.20
2022-12-06T18:35:27.109Z,63.03
2022-12-06T18:37:56.799Z,72.13
2022-12-06T18:40:25.323Z,62.73
2022-12-06T18:42:53.740Z,62.60
2022-12-06T18:45:22.406Z,60.00
2022-12-06T18:47:50.676Z,64.63
2022-12-06T18:50:19.530Z,59.53
2022-12-06T18:52:49.193Z,44.77
2022-12-06T18:55:18.123Z,51.80
2022-12-06T18:57:46.554Z,41.40
2022-12-06T19:00:16.150Z,46.27
2022-12-06T19:02:44.516Z,49.93
2022-12-06T19:05:13.473Z,44.83
2022-12-06T19:07:42.642Z,44.77
2022-12-06T19:10:12.830Z,38.33
2022-12-06T19:12:41.082Z,34.77
2022-12-06T19:15:11.428Z,42.97
2022-12-06T19:17:39.869Z,32.00
2022-12-06T19:20:09.545Z,36.57
2022-12-06T19:22:38.334Z,36.27
2022-12-06T19:25:07.720Z,32.77
2022-12-06T19:27:37.451Z,23.60
2022-12-06T19:30:08.342Z,31.77
2022-12-06T19:32:37.254Z,32.60
2022-12-06T19:35:08.469Z,27.40
2022-12-06T19:37:37.347Z,31.23
2022-12-06T19:40:06.817Z,37.97
2022-12-06T19:42:55.117Z,44.67
2022-12-06T19:45:25.530Z,41.93
2022-12-06T19:47:53.912Z,47.83
2022-12-06T19:50:22.600Z,49.07
2022-12-06T19:52:50.863Z,40.23
2022-12-06T19:55:19.520Z,42.80
2022-12-06T19:57:49.292Z,36.93
2022-12-06T20:00:22.560Z,41.93
2022-12-06T20:02:51.386Z,44.43
2022-12-06T20:05:20.416Z,34.47
2022-12-06T20:07:48.786Z,26.30
2022-12-06T20:10:17.483Z,35.77
2022-12-06T20:12:46.669Z,31.23
2022-12-06T20:15:16.705Z,25.30
2022-12-06T20:17:45.416Z,28.17
2022-12-06T20:20:14.119Z,22.53
2022-12-06T20:22:43.085Z,27.87
2022-12-06T20:25:12.145Z,23.13
2022-12-06T20:28:00.448Z,24.40
2022-12-06T20:30:31.896Z,26.57
2022-12-06T20:33:00.562Z,29.97
2022-12-06T20:35:29.423Z,21.77
2022-12-06T20:37:57.794Z,29.57
2022-12-06T20:40:31.203Z,19.30
2022-12-06T20:42:59.982Z,22.73
2022-12-06T20:45:30.112Z,23.37
2022-12-06T20:47:58.545Z,21.20
2022-12-06T20:50:27.540Z,21.17
2022-12-06T20:52:55.789Z,19.90
2022-12-06T20:55:24.427Z,14.10
2022-12-06T20:57:52.851Z,23.50
2022-12-06T21:00:22.432Z,20.90
2022-12-06T21:02:52.650Z,18.13
2022-12-06T21:05:21.443Z,23.90
2022-12-06T21:07:49.810Z,18.00
2022-12-06T21:10:18.531Z,19.40
2022-12-06T21:12:46.986Z,19.73
2022-12-06T21:15:15.858Z,15.27
2022-12-06T21:17:44.242Z,20.97
2022-12-06T21:20:14.396Z,16.33
2022-12-06T21:22:42.948Z,15.30
2022-12-06T21:25:11.924Z,23.47
2022-12-06T21:27:40.217Z,16.60
2022-12-06T21:30:10.090Z,20.40
2022-12-06T21:32:38.418Z,17.33
2022-12-06T21:35:07.910Z,14.13
2022-12-06T21:37:37.991Z,19.30
2022-12-06T21:40:08.059Z,13.80
2022-12-06T21:42:37.097Z,13.47
2022-12-06T21:45:06.200Z,16.03
2022-12-06T21:47:34.552Z,15.03
2022-12-06T21:50:03.693Z,15.40
2022-12-06T21:52:32.612Z,15.37
2022-12-06T21:55:03.231Z,14.10
2022-12-06T21:57:34.075Z,15.70
2022-12-06T22:00:03.684Z,17.37
2022-12-06T22:02:32.503Z,13.83
2022-12-06T22:05:01.251Z,14.10
2022-12-06T22:07:29.736Z,14.60
2022-12-06T22:09:58.326Z,12.63
2022-12-06T22:12:28.770Z,13.10
2022-12-06T22:14:57.406Z,13.50
2022-12-06T22:17:26.027Z,13.00
2022-12-06T22:19:55.113Z,12.73
2022-12-06T22:22:23.736Z,13.50
2022-12-06T22:24:53.984Z,10.13
2022-12-06T22:27:22.302Z,14.23
2022-12-06T22:29:53.961Z,17.13
2022-12-06T22:32:22.238Z,11.73
2022-12-06T22:34:50.917Z,8.70
2022-12-06T22:37:21.881Z,12.03
2022-12-06T22:39:53.983Z,11.27
2022-12-06T22:42:22.214Z,9.17
2022-12-06T22:44:52.224Z,9.80
2022-12-06T22:47:20.838Z,11.37
2022-12-06T22:49:50.034Z,9.90
2022-12-06T22:52:18.383Z,11.30
2022-12-06T22:54:47.921Z,12.17
2022-12-06T22:57:16.477Z,8.87
2022-12-06T22:59:45.154Z,6.57
2022-12-06T23:02:14.830Z,16.20
2022-12-06T23:04:43.549Z,8.30
2022-12-06T23:07:12.145Z,10.63
2022-12-06T23:09:40.765Z,9.43
2022-12-06T23:12:09.214Z,12.20
2022-12-06T23:14:37.705Z,12.13
2022-12-06T23:17:06.131Z,13.53
2022-12-06T23:19:36.489Z,9.50
2022-12-06T23:22:04.849Z,9.23
2022-12-06T23:24:33.505Z,10.40
2022-12-06T23:27:01.785Z,11.93
2022-12-06T23:29:30.317Z,10.53
2022-12-06T23:31:58.966Z,10.20
2022-12-06T23:34:27.790Z,11.73
2022-12-06T23:36:57.502Z,11.30
2022-12-06T23:39:26.701Z,11.50
2022-12-06T23:41:54.979Z,12.07
2022-12-06T23:44:25.216Z,10.87
2022-12-06T23:46:54.026Z,9.03
2022-12-06T23:49:23.204Z,9.27
2022-12-06T23:51:51.867Z,15.57
2022-12-06T23:54:22.005Z,12.73
2022-12-06T23:56:50.286Z,15.90
2022-12-06T23:59:20.282Z,9.87
